createdAt,value
2018-05-04T00:00:11.988Z,102087.33
2018-05-04T00:02:37.715Z,102086.83
2018-05-04T00:05:03.473Z,102090.78
2018-05-04T00:07:29.212Z,102082.62
2018-05-04T00:09:54.967Z,102090.16
2018-05-04T00:12:20.718Z,102094.72
2018-05-04T00:14:46.456Z,102093.95
2018-05-04T00:17:12.197Z,102098.60
2018-05-04T00:19:37.920Z,102088.49
2018-05-04T00:22:03.696Z,102091.53
2018-05-04T00:24:29.436Z,102095.30
2018-05-04T00:26:55.284Z,102098.89
2018-05-04T00:29:21.032Z,102106.92
2018-05-04T00:31:46.769Z,102101.48
2018-05-04T00:34:13.002Z,102094.98
2018-05-04T00:36:39.172Z,102100.39
2018-05-04T00:39:05.088Z,102109.62
2018-05-04T00:41:30.841Z,102107.23
2018-05-04T00:43:56.599Z,102100.81
2018-05-04T00:46:22.369Z,102098.89
2018-05-04T00:48:48.106Z,102104.73
2018-05-04T00:51:13.843Z,102099.76
2018-05-04T00:53:51.932Z,102110.05
2018-05-04T00:56:17.782Z,102110.41
2018-05-04T00:58:43.748Z,102095.95
2018-05-04T01:01:09.493Z,102098.14
2018-05-04T01:03:35.259Z,102099.94
2018-05-04T01:06:00.997Z,102099.88
2018-05-04T01:08:26.729Z,102116.25
2018-05-04T01:10:52.460Z,102125.12
2018-05-04T01:13:18.206Z,102127.05
2018-05-04T01:15:43.944Z,102129.33
2018-05-04T01:18:09.690Z,102122.53
2018-05-04T01:20:35.405Z,102126.13
2018-05-04T01:23:01.137Z,102120.71
2018-05-04T01:25:26.868Z,102130.67
2018-05-04T01:27:52.604Z,102130.17
2018-05-04T01:30:18.335Z,102126.81
2018-05-04T01:32:44.085Z,102130.93
2018-05-04T01:35:09.808Z,102132.59
2018-05-04T01:37:35.548Z,102133.48
2018-05-04T01:40:01.289Z,102143.25
2018-05-04T01:42:27.032Z,102152.86
2018-05-04T01:44:52.758Z,102153.32
2018-05-04T01:47:18.489Z,102156.17
2018-05-04T01:49:44.223Z,102150.53
2018-05-04T01:52:09.952Z,102150.05
2018-05-04T01:54:35.680Z,102143.47
2018-05-04T01:57:01.462Z,102142.86
2018-05-04T01:59:27.199Z,102143.77
2018-05-04T02:01:52.931Z,102141.92
2018-05-04T02:04:18.655Z,102148.40
2018-05-04T02:06:44.385Z,102144.23
2018-05-04T02:09:10.154Z,102141.13
2018-05-04T02:11:35.900Z,102147.44
2018-05-04T02:14:01.627Z,102143.73
2018-05-04T02:16:27.357Z,102148.03
2018-05-04T02:18:53.097Z,102142.69
2018-05-04T02:21:18.842Z,102139.22
2018-05-04T02:23:44.572Z,102141.35
2018-05-04T02:26:10.289Z,102147.06
2018-05-04T02:28:36.012Z,102148.71
2018-05-04T02:31:01.742Z,102154.72
2018-05-04T02:33:27.477Z,102158.86
2018-05-04T02:35:53.208Z,102166.45
2018-05-04T02:38:18.944Z,102159.62
2018-05-04T02:40:44.671Z,102165.22
2018-05-04T02:43:10.402Z,102159.55
2018-05-04T02:45:36.131Z,102161.19
2018-05-04T02:48:01.874Z,102167.67
2018-05-04T02:50:27.616Z,102171.22
2018-05-04T02:52:53.352Z,102162.30
2018-05-04T02:55:19.142Z,102169.06
2018-05-04T02:57:44.849Z,102173.20
2018-05-04T03:00:10.585Z,102166.71
2018-05-04T03:02:36.317Z,102170.54
2018-05-04T03:05:02.062Z,102172.30
2018-05-04T03:07:27.804Z,102169.23
2018-05-04T03:09:53.544Z,102174.25
2018-05-04T03:12:19.279Z,102169.47
2018-05-04T03:14:45.016Z,102166.03
2018-05-04T03:17:10.751Z,102166.44
2018-05-04T03:19:36.479Z,102164.78
2018-05-04T03:22:02.320Z,102167.97
2018-05-04T03:24:27.975Z,102173.61
2018-05-04T03:26:53.708Z,102174.19
2018-05-04T03:29:19.431Z,102178.19
2018-05-04T03:31:45.156Z,102178.87
2018-05-04T03:34:10.895Z,102172.67
2018-05-04T03:36:36.631Z,102176.63
2018-05-04T03:39:02.384Z,102177.28
2018-05-04T03:41:28.120Z,102184.58
2018-05-04T03:43:53.868Z,102192.78
2018-05-04T03:46:19.613Z,102184.34
2018-05-04T03:48:45.383Z,102190.96
2018-05-04T03:51:11.081Z,102187.89
2018-05-04T03:53:36.808Z,102190.67
2018-05-04T03:56:02.536Z,102183.20
2018-05-04T04:11:53.440Z,102205.91
2018-05-04T04:14:19.188Z,102207.30
2018-05-04T04:16:44.924Z,102207.28
2018-05-04T04:19:10.665Z,102210.92
2018-05-04T04:21:36.393Z,102210.93
2018-05-04T04:24:02.132Z,102218.43
2018-05-04T04:26:27.863Z,102221.73
2018-05-04T04:28:53.599Z,102218.43
2018-05-04T04:31:19.325Z,102223.37
2018-05-04T04:33:45.056Z,102224.44
2018-05-04T04:36:10.795Z,102223.61
2018-05-04T04:38:36.535Z,102224.88
2018-05-04T04:41:02.261Z,102235.75
2018-05-04T04:43:28.000Z,102233.70
2018-05-04T04:45:53.732Z,102236.87
2018-05-04T04:48:19.468Z,102243.95
2018-05-04T04:50:45.196Z,102248.16
2018-05-04T04:53:10.938Z,102238.67
2018-05-04T04:55:36.664Z,102241.28
2018-05-04T04:58:02.408Z,102243.67
2018-05-04T05:00:28.150Z,102249.98
2018-05-04T05:02:53.876Z,102255.91
2018-05-04T05:05:19.613Z,102251.41
2018-05-04T05:07:45.353Z,102250.37
2018-05-04T05:10:11.106Z,102246.98
2018-05-04T05:12:36.836Z,102250.66
2018-05-04T05:15:02.568Z,102246.61
2018-05-04T05:17:28.294Z,102246.30
2018-05-04T05:19:54.032Z,102249.90
2018-05-04T05:22:19.745Z,102250.30
2018-05-04T05:24:45.496Z,102251.37
2018-05-04T05:27:11.220Z,102258.55
2018-05-04T05:29:37.033Z,102243.63
2018-05-04T05:32:02.697Z,102242.98
2018-05-04T05:34:28.415Z,102244.97
2018-05-04T05:36:54.136Z,102253.50
2018-05-04T05:39:19.863Z,102246.69
2018-05-04T05:41:45.590Z,102251.78
2018-05-04T05:44:11.333Z,102245.73
2018-05-04T05:46:37.055Z,102244.62
2018-05-04T05:49:02.794Z,102247.80
2018-05-04T05:51:28.513Z,102243.16
2018-05-04T05:53:54.231Z,102247.78
2018-05-04T05:56:19.952Z,102240.97
2018-05-04T05:58:45.696Z,102240.69
2018-05-04T06:01:11.424Z,102249.63
2018-05-04T06:03:37.155Z,102250.16
2018-05-04T06:06:02.892Z,102254.81
2018-05-04T06:08:28.604Z,102259.11
2018-05-04T06:10:54.337Z,102256.38
2018-05-04T06:13:20.067Z,102256.09
2018-05-04T06:15:45.808Z,102248.11
2018-05-04T06:18:11.543Z,102257.66
2018-05-04T06:20:37.281Z,102256.72
2018-05-04T06:23:03.028Z,102254.48
2018-05-04T06:25:28.761Z,102253.69
2018-05-04T06:27:54.513Z,102245.68
2018-05-04T06:30:20.293Z,102245.08
2018-05-04T06:32:46.045Z,102248.13
2018-05-04T06:35:11.768Z,102243.34
2018-05-04T06:37:37.500Z,102245.22
2018-05-04T06:40:03.228Z,102241.09
2018-05-04T06:42:28.956Z,102240.76
2018-05-04T06:44:54.713Z,102240.23
2018-05-04T06:47:20.463Z,102239.02
2018-05-04T06:49:46.191Z,102232.88
2018-05-04T06:52:11.905Z,102242.93
2018-05-04T06:54:37.638Z,102243.30
2018-05-04T06:57:03.354Z,102242.88
2018-05-04T06:59:29.119Z,102242.48
2018-05-04T07:01:54.866Z,102244.69
2018-05-04T07:04:20.625Z,102245.17
2018-05-04T07:06:46.361Z,102247.78
2018-05-04T07:09:12.088Z,102253.02
2018-05-04T07:11:37.813Z,102258.41
2018-05-04T07:14:03.544Z,102252.23
2018-05-04T07:16:29.285Z,102252.23
2018-05-04T07:18:55.024Z,102258.79
2018-05-04T07:21:20.761Z,102260.45
2018-05-04T07:23:46.491Z,102262.69
2018-05-04T07:26:12.228Z,102256.19
2018-05-04T07:28:38.028Z,102251.05
2018-05-04T07:31:03.736Z,102259.34
2018-05-04T07:33:29.483Z,102247.96
2018-05-04T07:35:55.259Z,102243.44
2018-05-04T07:38:20.997Z,102241.92
2018-05-04T07:40:46.778Z,102244.97
2018-05-04T07:43:12.599Z,102251.04
2018-05-04T07:45:38.273Z,102253.69
2018-05-04T07:48:04.045Z,102254.14
2018-05-04T07:50:29.792Z,102264.25
2018-05-04T07:52:55.508Z,102264.97
2018-05-04T07:55:21.257Z,102260.34
2018-05-04T07:57:47.000Z,102264.25
2018-05-04T08:00:12.762Z,102267.30
2018-05-04T08:02:38.499Z,102276.90
2018-05-04T08:05:04.257Z,102276.86
2018-05-04T08:07:29.997Z,102277.37
2018-05-04T08:09:55.736Z,102284.07
2018-05-04T08:12:21.468Z,102286.23
2018-05-04T08:14:47.187Z,102288.52
2018-05-04T08:17:12.940Z,102284.46
2018-05-04T08:19:38.664Z,102293.41
2018-05-04T08:22:04.410Z,102300.03
2018-05-04T08:24:30.176Z,102301.57
2018-05-04T08:26:55.913Z,102305.42
2018-05-04T08:29:21.647Z,102311.70
2018-05-04T08:31:47.379Z,102314.63
2018-05-04T08:34:13.139Z,102310.92
2018-05-04T08:36:38.884Z,102310.52
2018-05-04T08:39:04.617Z,102321.30
2018-05-04T08:41:30.376Z,102309.10
2018-05-04T08:43:56.096Z,102312.70
2018-05-04T08:46:21.832Z,102306.56
2018-05-04T08:48:47.559Z,102305.63
2018-05-04T08:51:13.326Z,102304.58
2018-05-04T08:53:39.045Z,102302.34
2018-05-04T08:56:04.788Z,102293.05
2018-05-04T08:58:30.517Z,102298.59
2018-05-04T09:00:56.255Z,102298.23
2018-05-04T09:03:21.989Z,102297.05
2018-05-04T09:05:47.719Z,102291.13
2018-05-04T09:08:13.440Z,102292.14
2018-05-04T09:10:39.173Z,102298.44
2018-05-04T09:13:04.904Z,102307.08
2018-05-04T09:15:30.654Z,102306.11
2018-05-04T09:17:56.380Z,102309.38
2018-05-04T09:20:22.100Z,102312.70
2018-05-04T09:22:47.844Z,102312.03
2018-05-04T09:25:13.628Z,102311.26
2018-05-04T09:27:39.324Z,102317.16
2018-05-04T09:30:05.048Z,102321.20
2018-05-04T09:32:30.792Z,102327.01
2018-05-04T09:34:56.532Z,102328.87
2018-05-04T09:37:22.279Z,102327.03
2018-05-04T09:39:48.000Z,102321.08
2018-05-04T09:42:13.738Z,102314.43
2018-05-04T09:44:39.457Z,102315.56
2018-05-04T09:47:05.213Z,102315.83
2018-05-04T09:49:30.944Z,102313.61
2018-05-04T09:51:56.681Z,102312.79
2018-05-04T09:54:22.417Z,102307.03
2018-05-04T09:56:48.150Z,102315.82
2018-05-04T09:59:13.889Z,102310.13
2018-05-04T10:01:39.634Z,102311.71
2018-05-04T10:04:05.369Z,102313.20
2018-05-04T10:06:31.150Z,102307.16
2018-05-04T10:08:56.882Z,102319.36
2018-05-04T10:11:22.624Z,102318.42
2018-05-04T10:13:48.343Z,102309.66
2018-05-04T10:16:14.088Z,102305.16
2018-05-04T10:18:39.815Z,102317.00
2018-05-04T10:21:05.881Z,102313.99
2018-05-04T10:23:31.945Z,102299.84
2018-05-04T10:25:58.028Z,102301.32
2018-05-04T10:28:23.801Z,102294.89
2018-05-04T10:30:49.915Z,102298.09
2018-05-04T10:33:15.692Z,102297.05
2018-05-04T10:35:41.422Z,102306.74
2018-05-04T10:38:07.194Z,102307.08
2018-05-04T10:40:32.944Z,102309.47
2018-05-04T10:42:58.690Z,102297.82
2018-05-04T10:45:24.425Z,102305.03
2018-05-04T10:47:50.163Z,102295.05
2018-05-04T10:50:15.934Z,102289.70
2018-05-04T10:52:41.697Z,102299.03
2018-05-04T10:55:07.456Z,102301.05
2018-05-04T10:57:33.196Z,102301.48
2018-05-04T10:59:58.944Z,102293.67
2018-05-04T11:02:24.682Z,102298.77
2018-05-04T11:04:50.414Z,102298.18
2018-05-04T11:07:16.168Z,102291.08
2018-05-04T11:09:41.908Z,102287.99
2018-05-04T11:12:07.658Z,102286.36
2018-05-04T11:14:33.388Z,102289.20
2018-05-04T11:17:04.158Z,102286.36
2018-05-04T11:19:30.335Z,102283.07
2018-05-04T11:21:56.060Z,102291.48
2018-05-04T11:24:25.002Z,102282.09
2018-05-04T11:26:52.248Z,102282.14
2018-05-04T11:29:18.077Z,102281.53
2018-05-04T11:31:43.826Z,102284.27
2018-05-04T11:34:09.616Z,102286.61
2018-05-04T11:36:35.358Z,102290.75
2018-05-04T11:39:01.107Z,102282.88
2018-05-04T11:41:27.042Z,102283.53
2018-05-04T11:43:52.800Z,102288.82
2018-05-04T11:46:18.528Z,102295.69
2018-05-04T11:48:44.281Z,102285.94
2018-05-04T11:51:10.014Z,102287.94
2018-05-04T11:53:35.959Z,102280.80
2018-05-04T11:56:01.886Z,102281.81
2018-05-04T11:58:27.851Z,102283.77
2018-05-04T12:00:53.834Z,102277.13
2018-05-04T12:03:19.807Z,102286.03
2018-05-04T12:05:45.755Z,102281.80
2018-05-04T12:08:11.504Z,102286.80
2018-05-04T12:10:37.224Z,102284.66
2018-05-04T12:13:02.983Z,102287.05
2018-05-04T12:15:28.726Z,102287.41
2018-05-04T12:17:54.465Z,102288.84
2018-05-04T12:20:20.213Z,102287.70
2018-05-04T12:22:46.236Z,102286.80
2018-05-04T12:25:11.947Z,102289.84
2018-05-04T12:27:37.688Z,102283.02
2018-05-04T12:30:03.436Z,102279.92
2018-05-04T12:32:29.180Z,102282.05
2018-05-04T12:34:55.081Z,102282.59
2018-05-04T12:37:20.841Z,102273.05
2018-05-04T12:39:46.569Z,102281.25
2018-05-04T12:42:12.300Z,102276.55
2018-05-04T12:44:38.035Z,102284.06
2018-05-04T12:47:03.829Z,102282.14
2018-05-04T12:49:29.717Z,102281.50
2018-05-04T12:51:55.643Z,102287.99
2018-05-04T12:54:21.599Z,102284.40
2018-05-04T12:56:47.597Z,102283.84
2018-05-04T12:59:13.340Z,102281.80
2018-05-04T13:01:39.068Z,102286.65
2018-05-04T13:04:04.801Z,102286.09
2018-05-04T13:06:30.527Z,102279.23
2018-05-04T13:08:56.288Z,102284.91
2018-05-04T13:11:22.152Z,102282.23
2018-05-04T13:13:48.070Z,102279.08
2018-05-04T13:16:13.952Z,102274.72
2018-05-04T13:18:39.852Z,102278.44
2018-05-04T13:21:05.577Z,102272.99
2018-05-04T13:23:31.316Z,102272.64
2018-05-04T13:25:57.043Z,102272.88
2018-05-04T13:28:22.784Z,102272.19
2018-05-04T13:30:48.513Z,102277.48
2018-05-04T13:33:14.252Z,102272.84
2018-05-04T13:35:39.987Z,102266.50
2018-05-04T13:38:05.724Z,102263.71
2018-05-04T13:40:31.460Z,102258.66
2018-05-04T13:42:57.212Z,102260.30
2018-05-04T13:45:22.942Z,102260.20
2018-05-04T13:47:48.697Z,102258.21
2018-05-04T13:50:14.420Z,102260.02
2018-05-04T13:52:40.148Z,102255.59
2018-05-04T13:55:05.893Z,102261.66
2018-05-04T13:57:31.615Z,102258.89
2018-05-04T13:59:57.377Z,102254.98
2018-05-04T14:02:23.124Z,102258.16
2018-05-04T14:04:48.880Z,102254.77
2018-05-04T14:07:14.621Z,102263.30
2018-05-04T14:09:40.373Z,102255.85
2018-05-04T14:12:06.116Z,102261.89
2018-05-04T14:14:31.856Z,102261.72
2018-05-04T14:16:57.609Z,102264.95
2018-05-04T14:19:23.348Z,102261.98
2018-05-04T14:21:49.086Z,102254.55
2018-05-04T14:24:14.827Z,102250.08
2018-05-04T14:26:40.560Z,102257.73
2018-05-04T14:29:06.308Z,102260.81
2018-05-04T14:31:32.087Z,102256.63
2018-05-04T14:33:57.828Z,102252.00
2018-05-04T14:36:23.561Z,102258.72
2018-05-04T14:38:49.308Z,102250.14
2018-05-04T14:41:15.038Z,102253.00
2018-05-04T14:43:40.781Z,102258.55
2018-05-04T14:46:06.577Z,102247.45
2018-05-04T14:48:32.327Z,102253.64
2018-05-04T14:50:58.054Z,102247.75
2018-05-04T14:53:23.812Z,102257.88
2018-05-04T14:55:49.548Z,102256.16
2018-05-04T14:58:15.332Z,102244.66
2018-05-04T15:00:41.073Z,102250.72
2018-05-04T15:03:06.804Z,102247.00
2018-05-04T15:05:32.550Z,102248.58
2018-05-04T15:07:58.282Z,102244.22
2018-05-04T15:10:24.025Z,102237.02
2018-05-04T15:12:49.757Z,102240.16
2018-05-04T15:15:15.497Z,102238.45
2018-05-04T15:17:41.240Z,102247.05
2018-05-04T15:20:06.981Z,102237.78
2018-05-04T15:22:32.713Z,102240.91
2018-05-04T15:24:58.516Z,102246.80
2018-05-04T15:27:24.185Z,102244.02
2018-05-04T15:29:49.964Z,102235.18
2018-05-04T15:32:15.707Z,102243.23
2018-05-04T15:34:41.440Z,102244.69
2018-05-04T15:37:07.173Z,102237.73
2018-05-04T15:39:32.912Z,102240.50
2018-05-04T15:41:58.639Z,102238.87
2018-05-04T15:44:24.385Z,102238.17
2018-05-04T15:46:50.111Z,102237.89
2018-05-04T15:49:19.833Z,102236.10
2018-05-04T15:51:51.809Z,102238.04
2018-05-04T15:54:17.573Z,102248.25
2018-05-04T15:56:43.321Z,102246.78
2018-05-04T15:59:09.124Z,102249.98
2018-05-04T16:01:34.861Z,102245.52
2018-05-04T16:04:00.626Z,102255.42
2018-05-04T16:06:26.428Z,102253.02
2018-05-04T16:08:52.273Z,102254.31
2018-05-04T16:11:18.005Z,102257.66
2018-05-04T16:13:43.754Z,102262.73
2018-05-04T16:16:09.474Z,102261.70
2018-05-04T16:18:35.193Z,102262.34
2018-05-04T16:21:00.941Z,102269.33
2018-05-04T16:23:26.660Z,102266.34
2018-05-04T16:25:52.400Z,102266.43
2018-05-04T16:28:18.117Z,102272.51
2018-05-04T16:30:43.874Z,102272.59
2018-05-04T16:33:09.618Z,102273.52
2018-05-04T16:35:35.406Z,102274.41
2018-05-04T16:38:01.145Z,102279.62
2018-05-04T16:40:26.896Z,102277.77
2018-05-04T16:42:52.664Z,102280.72
2018-05-04T16:45:18.485Z,102276.95
2018-05-04T16:47:50.348Z,102281.05
2018-05-04T16:50:16.085Z,102282.23
2018-05-04T16:52:41.821Z,102289.79
2018-05-04T16:55:07.555Z,102297.00
2018-05-04T16:57:33.307Z,102287.59
2018-05-04T16:59:59.112Z,102295.04
2018-05-04T17:02:24.928Z,102293.81
2018-05-04T17:04:50.688Z,102290.26
2018-05-04T17:07:16.448Z,102300.03
2018-05-04T17:09:42.180Z,102291.08
2018-05-04T17:12:07.930Z,102295.19
2018-05-04T17:14:33.660Z,102298.29
2018-05-04T17:16:59.412Z,102290.53
2018-05-04T17:19:25.244Z,102298.16
2018-05-04T17:21:51.040Z,102297.55
2018-05-04T17:24:16.864Z,102306.33
2018-05-04T17:26:42.609Z,102300.73
2018-05-04T17:29:08.352Z,102301.95
2018-05-04T17:31:34.095Z,102299.97
2018-05-04T17:33:59.871Z,102303.94
2018-05-04T17:36:25.567Z,102309.06
2018-05-04T17:38:51.296Z,102314.45
2018-05-04T17:41:17.062Z,102313.34
2018-05-04T17:43:42.818Z,102311.60
2018-05-04T17:46:08.574Z,102320.50
2018-05-04T17:48:34.375Z,102314.82
2018-05-04T17:51:00.157Z,102322.99
2018-05-04T17:53:26.020Z,102319.77
2018-05-04T17:55:51.839Z,102324.52
2018-05-04T17:58:17.580Z,102327.77
2018-05-04T18:00:43.385Z,102328.79
2018-05-04T18:03:09.134Z,102336.37
2018-05-04T18:05:34.983Z,102334.11
2018-05-04T18:08:00.706Z,102336.55
2018-05-04T18:10:26.429Z,102341.95
2018-05-04T18:12:52.176Z,102345.20
2018-05-04T18:15:17.908Z,102346.64
2018-05-04T18:17:43.672Z,102344.23
2018-05-04T18:20:09.389Z,102340.81
2018-05-04T18:22:35.119Z,102343.14
2018-05-04T18:25:00.849Z,102345.08
2018-05-04T18:27:26.584Z,102342.89
2018-05-04T18:29:52.300Z,102343.41
2018-05-04T18:32:18.061Z,102343.02
2018-05-04T18:34:43.788Z,102345.80
2018-05-04T18:37:09.527Z,102350.15
2018-05-04T18:39:35.266Z,102353.38
2018-05-04T18:42:00.996Z,102353.11
2018-05-04T18:44:26.711Z,102357.97
2018-05-04T18:46:52.449Z,102365.98
2018-05-04T18:49:18.175Z,102365.62
2018-05-04T18:51:43.921Z,102367.41
2018-05-04T18:54:09.655Z,102373.69
2018-05-04T18:56:35.408Z,102369.79
2018-05-04T18:59:01.140Z,102366.00
2018-05-04T19:01:26.878Z,102366.52
2018-05-04T19:03:52.600Z,102363.45
2018-05-04T19:06:18.340Z,102370.96
2018-05-04T19:08:44.069Z,102380.73
2018-05-04T19:11:09.813Z,102383.11
2018-05-04T19:13:35.549Z,102395.86
2018-05-04T19:16:01.289Z,102398.97
2018-05-04T19:18:27.029Z,102403.79
2018-05-04T19:20:52.792Z,102407.36
2018-05-04T19:23:18.525Z,102410.42
2018-05-04T19:25:44.260Z,102417.53
2018-05-04T19:28:10.006Z,102426.39
2018-05-04T19:30:35.756Z,102429.06
2018-05-04T19:33:01.493Z,102437.49
2018-05-04T19:35:27.242Z,102440.19
2018-05-04T19:37:52.989Z,102440.22
2018-05-04T19:40:18.720Z,102443.36
2018-05-04T19:42:44.461Z,102444.31
2018-05-04T19:45:10.196Z,102443.47
2018-05-04T19:47:36.665Z,102448.34
2018-05-04T19:50:02.424Z,102444.82
2018-05-04T19:52:28.165Z,102450.13
2018-05-04T19:54:53.897Z,102447.49
2018-05-04T19:57:19.646Z,102453.67
2018-05-04T19:59:45.392Z,102462.92
2018-05-04T20:02:11.136Z,102457.20
2018-05-04T20:04:36.865Z,102458.95
2018-05-04T20:07:02.689Z,102452.34
2018-05-04T20:09:28.368Z,102454.13
2018-05-04T20:11:54.118Z,102460.27
2018-05-04T20:14:19.845Z,102458.45
2018-05-04T20:16:46.035Z,102469.01
2018-05-04T20:19:11.769Z,102471.66
2018-05-04T20:21:37.500Z,102471.16
2018-05-04T20:24:03.242Z,102473.77
2018-05-04T20:26:28.997Z,102477.33
2018-05-04T20:28:54.765Z,102479.98
2018-05-04T20:31:20.477Z,102475.13
2018-05-04T20:33:46.213Z,102478.66
2018-05-04T20:36:11.941Z,102485.62
2018-05-04T20:38:37.743Z,102486.02
2018-05-04T20:41:03.492Z,102491.73
2018-05-04T20:43:29.228Z,102489.56
2018-05-04T20:45:54.960Z,102490.91
2018-05-04T20:48:20.705Z,102497.86
2018-05-04T20:50:46.445Z,102499.56
2018-05-04T20:53:12.204Z,102509.25
2018-05-04T20:55:37.945Z,102499.55
2018-05-04T20:58:03.679Z,102503.49
2018-05-04T21:00:29.395Z,102507.83
2018-05-04T21:02:55.145Z,102501.69
2018-05-04T21:05:20.869Z,102498.09
2018-05-04T21:07:46.616Z,102503.75
2018-05-04T21:10:12.351Z,102506.02
2018-05-04T21:12:38.080Z,102503.78
2018-05-04T21:15:03.813Z,102509.02
2018-05-04T21:17:29.531Z,102501.05
2018-05-04T21:19:55.333Z,102509.22
2018-05-04T21:22:21.012Z,102505.76
2018-05-04T21:24:46.753Z,102502.31
2018-05-04T21:27:12.489Z,102504.47
2018-05-04T21:29:38.216Z,102503.11
2018-05-04T21:32:03.943Z,102505.28
2018-05-04T21:34:29.672Z,102515.33
2018-05-04T21:36:55.399Z,102517.92
2018-05-04T21:39:21.140Z,102516.62
2018-05-04T21:41:46.874Z,102515.27
2018-05-04T21:44:12.595Z,102519.23
2018-05-04T21:46:38.309Z,102516.23
2018-05-04T21:49:04.050Z,102516.61
2018-05-04T21:51:29.777Z,102513.97
2018-05-04T21:53:55.507Z,102516.95
2018-05-04T21:56:21.228Z,102515.14
2018-05-04T21:58:46.960Z,102516.77
2018-05-04T22:01:12.701Z,102520.39
2018-05-04T22:03:38.440Z,102521.08
2018-05-04T22:06:04.171Z,102517.23
2018-05-04T22:08:29.929Z,102523.72
2018-05-04T22:10:55.665Z,102522.34
2018-05-04T22:13:21.401Z,102521.46
2018-05-04T22:15:47.133Z,102520.55
2018-05-04T22:18:12.876Z,102524.36
2018-05-04T22:20:38.605Z,102521.72
2018-05-04T22:23:04.329Z,102527.88
2018-05-04T22:25:30.065Z,102523.84
2018-05-04T22:27:55.784Z,102530.86
2018-05-04T22:30:21.521Z,102536.08
2018-05-04T22:32:47.252Z,102533.94
2018-05-04T22:35:12.977Z,102533.89
2018-05-04T22:37:38.704Z,102536.92
2018-05-04T22:40:04.424Z,102537.75
2018-05-04T22:42:30.164Z,102541.55
2018-05-04T22:44:55.899Z,102532.58
2018-05-04T22:47:21.647Z,102538.73
2018-05-04T22:49:47.365Z,102537.86
2018-05-04T22:52:13.080Z,102536.05
2018-05-04T22:54:38.817Z,102532.64
2018-05-04T22:57:04.537Z,102534.31
2018-05-04T22:59:30.288Z,102538.28
2018-05-04T23:01:56.024Z,102538.33
2018-05-04T23:04:21.781Z,102539.98
2018-05-04T23:06:47.535Z,102530.68
2018-05-04T23:09:13.281Z,102538.09
2018-05-04T23:11:39.014Z,102537.57
2018-05-04T23:14:04.744Z,102533.84
2018-05-04T23:16:30.533Z,102541.23
2018-05-04T23:18:56.215Z,102543.67
2018-05-04T23:21:21.948Z,102535.16
2018-05-04T23:23:47.688Z,102539.11
2018-05-04T23:26:13.424Z,102538.14
2018-05-04T23:28:39.164Z,102541.48
2018-05-04T23:31:04.893Z,102542.78
2018-05-04T23:33:30.654Z,102539.67
2018-05-04T23:35:56.386Z,102532.67
2018-05-04T23:38:22.124Z,102534.47
2018-05-04T23:40:47.860Z,102531.27
2018-05-04T23:43:13.598Z,102538.89
2018-05-04T23:45:39.324Z,102543.98
2018-05-04T23:48:05.078Z,102543.19
2018-05-04T23:50:30.941Z,102550.13
2018-05-04T23:52:56.671Z,102555.41
2018-05-04T23:55:22.409Z,102550.69
2018-05-04T23:57:48.154Z,102558.47
